createdAt,value
2018-05-25T00:00:25.789Z,100024
2018-05-25T00:02:54.705Z,100021
2018-05-25T00:05:22.853Z,100018
2018-05-25T00:07:50.980Z,100020
2018-05-25T00:10:19.102Z,100019
2018-05-25T00:12:47.226Z,100019
2018-05-25T00:15:15.371Z,100021
2018-05-25T00:17:43.516Z,100017
2018-05-25T00:20:11.625Z,100017
2018-05-25T00:22:40.514Z,100027
2018-05-25T00:25:08.643Z,100021
2018-05-25T00:27:36.785Z,100023
2018-05-25T00:30:05.681Z,100017
2018-05-25T00:32:34.571Z,100019
2018-05-25T00:35:03.477Z,100008
2018-05-25T00:37:32.373Z,100007
2018-05-25T00:40:01.365Z,100013
2018-05-25T00:42:30.282Z,100012
2018-05-25T00:44:58.435Z,100004
2018-05-25T00:47:27.323Z,100006
2018-05-25T00:49:56.228Z,100017
2018-05-25T00:52:25.123Z,100010
2018-05-25T00:55:12.132Z,100013
2018-05-25T00:57:41.031Z,100011
2018-05-25T01:00:09.897Z,100016
2018-05-25T01:02:38.025Z,100015
2018-05-25T01:05:06.165Z,100010
2018-05-25T01:07:35.081Z,100012
2018-05-25T01:10:03.208Z,100010
2018-05-25T01:12:31.332Z,100009
2018-05-25T01:14:59.495Z,100002
2018-05-25T01:17:28.384Z,100005
2018-05-25T01:19:56.536Z,100001
2018-05-25T01:22:24.686Z,100003
2018-05-25T01:24:52.829Z,100003
2018-05-25T01:27:21.732Z,100004
2018-05-25T01:29:50.611Z,100007
2018-05-25T01:32:19.547Z,100005
2018-05-25T01:34:47.652Z,100003
2018-05-25T01:37:15.786Z,100003
2018-05-25T01:39:43.939Z,100007
2018-05-25T01:42:12.830Z,100008
2018-05-25T01:44:40.981Z,100000
2018-05-25T01:47:09.137Z,100000
2018-05-25T01:49:37.259Z,99996
2018-05-25T01:52:05.431Z,99992
2018-05-25T01:54:33.541Z,99991
2018-05-25T01:57:02.422Z,99985
2018-05-25T01:59:31.331Z,99990
2018-05-25T02:01:59.452Z,99989
2018-05-25T02:04:27.591Z,99989
2018-05-25T02:06:55.728Z,99993
2018-05-25T02:09:23.900Z,100001
2018-05-25T02:11:52.037Z,100000
2018-05-25T02:14:20.166Z,99990
2018-05-25T02:16:48.308Z,99990
2018-05-25T02:19:16.446Z,100008
2018-05-25T02:21:45.341Z,99998
2018-05-25T02:24:14.227Z,100007
2018-05-25T02:26:43.153Z,100009
2018-05-25T02:29:11.276Z,100011
2018-05-25T02:31:39.438Z,100005
2018-05-25T02:34:07.594Z,100005
2018-05-25T02:36:35.726Z,100009
2018-05-25T02:39:04.630Z,99999
2018-05-25T02:41:33.529Z,100002
2018-05-25T02:44:02.423Z,99999
2018-05-25T02:46:31.306Z,99992
2018-05-25T02:48:59.425Z,99988
2018-05-25T02:51:27.558Z,99994
2018-05-25T02:53:55.738Z,99985
2018-05-25T02:56:23.878Z,99997
2018-05-25T02:58:52.001Z,100001
2018-05-25T03:01:20.922Z,99999
2018-05-25T03:03:49.053Z,100006
2018-05-25T03:06:17.170Z,99999
2018-05-25T03:08:45.296Z,100007
2018-05-25T03:11:13.440Z,100001
2018-05-25T03:13:41.543Z,100006
2018-05-25T03:16:09.685Z,100006
2018-05-25T03:18:37.805Z,100008
2018-05-25T03:21:05.947Z,100000
2018-05-25T03:23:34.088Z,99998
2018-05-25T03:26:02.235Z,99998
2018-05-25T03:28:30.343Z,99995
2018-05-25T03:30:59.228Z,100003
2018-05-25T03:33:27.360Z,100002
2018-05-25T03:35:55.510Z,100006
2018-05-25T03:38:24.396Z,100006
2018-05-25T03:40:53.332Z,100008
2018-05-25T03:43:21.446Z,99999
2018-05-25T03:45:49.593Z,100000
2018-05-25T03:48:17.731Z,100007
2018-05-25T03:50:46.618Z,100003
2018-05-25T03:53:15.530Z,100001
2018-05-25T03:55:43.656Z,100006
2018-05-25T03:58:11.783Z,100000
2018-05-25T04:03:48.800Z,100007
2018-05-25T04:06:16.929Z,100007
2018-05-25T04:08:45.937Z,100008
2018-05-25T04:11:14.833Z,100012
2018-05-25T04:13:43.038Z,100011
2018-05-25T04:16:11.176Z,100016
2018-05-25T04:18:40.099Z,100012
2018-05-25T04:21:08.242Z,100011
2018-05-25T04:23:36.394Z,100010
2018-05-25T04:26:04.541Z,100015
2018-05-25T04:28:32.650Z,100004
2018-05-25T04:31:00.793Z,100008
2018-05-25T04:33:28.911Z,100005
2018-05-25T04:35:57.035Z,100000
2018-05-25T04:38:25.162Z,100000
2018-05-25T04:40:53.317Z,100013
2018-05-25T04:43:21.443Z,100011
2018-05-25T04:45:50.521Z,100013
2018-05-25T04:48:18.658Z,100001
2018-05-25T04:50:46.816Z,100001
2018-05-25T04:53:20.538Z,99999
2018-05-25T04:55:48.690Z,100008
2018-05-25T04:58:17.576Z,100004
2018-05-25T05:00:45.688Z,100022
2018-05-25T05:03:13.868Z,100030
2018-05-25T05:05:41.999Z,100028
2018-05-25T05:08:10.139Z,100020
2018-05-25T05:10:38.273Z,100032
2018-05-25T05:13:07.162Z,100037
2018-05-25T05:15:36.049Z,100036
2018-05-25T05:18:05.009Z,100038
2018-05-25T05:20:33.120Z,100029
2018-05-25T05:23:01.260Z,100033
2018-05-25T05:25:29.373Z,100037
2018-05-25T05:27:57.505Z,100037
2018-05-25T05:30:25.672Z,100033
2018-05-25T05:32:53.793Z,100035
2018-05-25T05:35:21.917Z,100026
2018-05-25T05:37:50.030Z,100027
2018-05-25T05:40:18.160Z,100028
2018-05-25T05:42:47.062Z,100018
2018-05-25T05:45:15.938Z,100029
2018-05-25T05:47:44.068Z,100025
2018-05-25T05:50:12.189Z,100028
2018-05-25T05:52:40.313Z,100021
2018-05-25T05:55:08.414Z,100026
2018-05-25T05:57:36.533Z,100020
2018-05-25T06:00:05.425Z,100012
2018-05-25T06:02:34.337Z,100003
2018-05-25T06:05:03.416Z,99998
2018-05-25T06:07:32.294Z,99998
2018-05-25T06:10:00.426Z,99994
2018-05-25T06:12:28.633Z,99995
2018-05-25T06:14:56.672Z,99998
2018-05-25T06:17:24.791Z,99995
2018-05-25T06:19:52.908Z,100001
2018-05-25T06:22:21.783Z,100002
2018-05-25T06:24:50.678Z,100001
2018-05-25T06:27:19.570Z,100002
2018-05-25T06:29:47.724Z,100004
2018-05-25T06:32:15.838Z,100008
2018-05-25T06:34:44.762Z,100001
2018-05-25T06:37:13.722Z,100007
2018-05-25T06:39:41.855Z,100013
2018-05-25T06:42:10.017Z,100014
2018-05-25T06:44:38.142Z,100011
2018-05-25T06:47:06.329Z,100012
2018-05-25T06:49:35.215Z,100019
2018-05-25T06:52:03.326Z,100021
2018-05-25T06:54:31.467Z,100020
2018-05-25T06:56:59.636Z,100029
2018-05-25T06:59:27.784Z,100032
2018-05-25T07:01:55.913Z,100025
2018-05-25T07:04:24.052Z,100036
2018-05-25T07:06:52.169Z,100027
2018-05-25T07:09:21.086Z,100033
2018-05-25T07:11:49.981Z,100029
2018-05-25T07:14:18.887Z,100036
2018-05-25T07:16:47.006Z,100040
2018-05-25T07:19:15.144Z,100040
2018-05-25T07:21:43.285Z,100039
2018-05-25T07:24:11.687Z,100046
2018-05-25T07:26:40.582Z,100047
2018-05-25T07:29:09.461Z,100043
2018-05-25T07:31:38.360Z,100035
2018-05-25T07:34:07.247Z,100039
2018-05-25T07:36:35.371Z,100041
2018-05-25T07:39:03.477Z,100044
2018-05-25T07:41:31.592Z,100031
2018-05-25T07:44:00.489Z,100043
2018-05-25T07:46:29.364Z,100042
2018-05-25T07:48:57.503Z,100051
2018-05-25T07:51:25.609Z,100054
2018-05-25T07:53:53.780Z,100052
2018-05-25T07:56:21.906Z,100043
2018-05-25T07:58:50.817Z,100052
2018-05-25T08:01:18.936Z,100062
2018-05-25T08:03:47.065Z,100053
2018-05-25T08:06:15.203Z,100053
2018-05-25T08:08:43.335Z,100054
2018-05-25T08:11:11.459Z,100050
2018-05-25T08:13:39.574Z,100045
2018-05-25T08:16:07.718Z,100050
2018-05-25T08:18:35.855Z,100037
2018-05-25T08:21:03.982Z,100045
2018-05-25T08:23:32.857Z,100046
2018-05-25T08:26:01.786Z,100051
2018-05-25T08:28:29.960Z,100044
2018-05-25T08:30:58.845Z,100048
2018-05-25T08:33:27.747Z,100050
2018-05-25T08:35:56.633Z,100051
2018-05-25T08:38:25.517Z,100040
2018-05-25T08:40:53.631Z,100039
2018-05-25T08:43:21.805Z,100044
2018-05-25T08:45:50.660Z,100041
2018-05-25T08:48:18.786Z,100041
2018-05-25T08:50:46.909Z,100035
2018-05-25T08:53:15.149Z,100048
2018-05-25T08:55:43.267Z,100038
2018-05-25T08:58:11.524Z,100044
2018-05-25T09:00:39.622Z,100037
2018-05-25T09:03:07.744Z,100042
2018-05-25T09:05:35.872Z,100039
2018-05-25T09:08:05.034Z,100038
2018-05-25T09:10:33.176Z,100045
2018-05-25T09:13:02.076Z,100037
2018-05-25T09:15:30.968Z,100033
2018-05-25T09:17:59.107Z,100042
2018-05-25T09:20:27.234Z,100034
2018-05-25T09:22:56.139Z,100029
2018-05-25T09:25:24.261Z,100027
2018-05-25T09:27:52.394Z,100027
2018-05-25T09:30:21.267Z,100018
2018-05-25T09:32:50.169Z,100018
2018-05-25T09:35:19.078Z,100031
2018-05-25T09:37:47.210Z,100027
2018-05-25T09:40:15.329Z,100029
2018-05-25T09:42:44.217Z,100025
2018-05-25T09:45:13.097Z,100026
2018-05-25T09:47:41.986Z,100036
2018-05-25T09:50:10.119Z,100027
2018-05-25T09:52:38.239Z,100036
2018-05-25T09:55:06.369Z,100028
2018-05-25T09:57:34.501Z,100026
2018-05-25T10:00:02.629Z,100030
2018-05-25T10:02:30.753Z,100034
2018-05-25T10:04:58.866Z,100021
2018-05-25T10:07:27.007Z,100025
2018-05-25T10:09:55.134Z,100022
2018-05-25T10:12:23.268Z,100022
2018-05-25T10:14:52.164Z,100023
2018-05-25T10:17:21.054Z,100012
2018-05-25T10:19:49.935Z,100012
2018-05-25T10:22:18.055Z,100019
2018-05-25T10:24:46.970Z,100008
2018-05-25T10:27:15.105Z,100008
2018-05-25T10:29:44.012Z,100018
2018-05-25T10:32:12.886Z,100012
2018-05-25T10:34:41.769Z,100014
2018-05-25T10:37:09.931Z,100007
2018-05-25T10:39:38.058Z,100011
2018-05-25T10:42:06.204Z,100008
2018-05-25T10:44:34.336Z,100000
2018-05-25T10:47:02.482Z,100014
2018-05-25T10:49:31.377Z,100019
2018-05-25T10:52:00.270Z,100006
2018-05-25T10:54:29.204Z,99994
2018-05-25T10:56:57.349Z,99999
2018-05-25T10:59:26.255Z,100009
2018-05-25T11:01:54.414Z,100000
2018-05-25T11:04:23.303Z,100003
2018-05-25T11:06:52.230Z,100011
2018-05-25T11:09:20.347Z,99993
2018-05-25T11:11:48.464Z,100000
2018-05-25T11:14:17.455Z,99999
2018-05-25T11:16:46.349Z,99983
2018-05-25T11:19:15.287Z,99995
2018-05-25T11:21:43.397Z,99995
2018-05-25T11:24:11.562Z,99979
2018-05-25T11:26:39.691Z,99983
2018-05-25T11:29:08.616Z,99991
2018-05-25T11:31:36.736Z,99986
2018-05-25T11:34:05.773Z,99981
2018-05-25T11:36:33.942Z,99979
2018-05-25T11:39:02.862Z,99977
2018-05-25T11:41:31.010Z,99972
2018-05-25T11:43:59.892Z,99968
2018-05-25T11:46:28.034Z,99968
2018-05-25T11:48:56.128Z,99969
2018-05-25T11:51:24.250Z,99970
2018-05-25T11:53:53.146Z,99978
2018-05-25T11:56:21.261Z,99967
2018-05-25T11:58:49.387Z,99968
2018-05-25T12:01:18.269Z,99963
2018-05-25T12:03:46.390Z,99965
2018-05-25T12:06:14.512Z,99958
2018-05-25T12:08:42.664Z,99960
2018-05-25T12:11:10.786Z,99962
2018-05-25T12:13:39.656Z,99976
2018-05-25T12:16:07.785Z,99952
2018-05-25T12:18:35.893Z,99949
2018-05-25T12:21:04.028Z,99947
2018-05-25T12:23:32.908Z,99947
2018-05-25T12:26:01.891Z,99947
2018-05-25T12:28:30.036Z,99949
2018-05-25T12:30:58.154Z,99956
2018-05-25T12:33:27.044Z,99950
2018-05-25T12:35:55.929Z,99939
2018-05-25T12:38:24.069Z,99943
2018-05-25T12:40:52.173Z,99948
2018-05-25T12:43:20.311Z,99932
2018-05-25T12:45:48.434Z,99949
2018-05-25T12:48:16.621Z,99936
2018-05-25T12:50:45.522Z,99947
2018-05-25T12:53:13.644Z,99944
2018-05-25T12:55:41.771Z,99937
2018-05-25T12:58:09.886Z,99939
2018-05-25T13:00:38.131Z,99938
2018-05-25T13:03:06.223Z,99930
2018-05-25T13:05:35.107Z,99940
2018-05-25T13:08:04.030Z,99929
2018-05-25T13:10:32.142Z,99930
2018-05-25T13:13:00.243Z,99936
2018-05-25T13:15:28.375Z,99925
2018-05-25T13:17:56.491Z,99927
2018-05-25T13:20:24.615Z,99926
2018-05-25T13:22:52.720Z,99940
2018-05-25T13:25:20.838Z,99919
2018-05-25T13:27:48.955Z,99916
2018-05-25T13:30:17.118Z,99919
2018-05-25T13:32:46.025Z,99922
2018-05-25T13:35:14.166Z,99924
2018-05-25T13:37:42.456Z,99915
2018-05-25T13:40:11.349Z,99916
2018-05-25T13:42:40.243Z,99920
2018-05-25T13:45:09.134Z,99910
2018-05-25T13:47:37.258Z,99903
2018-05-25T13:50:05.374Z,99909
2018-05-25T13:52:33.535Z,99912
2018-05-25T13:55:01.639Z,99906
2018-05-25T13:57:29.773Z,99909
2018-05-25T13:59:57.887Z,99909
2018-05-25T14:02:26.046Z,99907
2018-05-25T14:04:54.175Z,99919
2018-05-25T14:07:23.054Z,99909
2018-05-25T14:09:51.176Z,99913
2018-05-25T14:12:19.279Z,99913
2018-05-25T14:14:47.429Z,99919
2018-05-25T14:17:15.624Z,99913
2018-05-25T14:19:43.734Z,99921
2018-05-25T14:22:11.889Z,99912
2018-05-25T14:24:40.000Z,99910
2018-05-25T14:27:08.914Z,99911
2018-05-25T14:29:37.860Z,99909
2018-05-25T14:32:05.995Z,99910
2018-05-25T14:34:34.167Z,99903
2018-05-25T14:37:02.298Z,99914
2018-05-25T14:39:30.401Z,99914
2018-05-25T14:41:59.775Z,99910
2018-05-25T14:44:27.904Z,99905
2018-05-25T14:46:56.813Z,99901
2018-05-25T14:49:24.935Z,99905
2018-05-25T14:51:53.044Z,99903
2018-05-25T14:54:21.983Z,99903
2018-05-25T14:56:50.114Z,99905
2018-05-25T14:59:19.020Z,99909
2018-05-25T15:01:47.144Z,99904
2018-05-25T15:04:15.315Z,99908
2018-05-25T15:06:43.521Z,99898
2018-05-25T15:09:11.601Z,99902
2018-05-25T15:11:39.745Z,99905
2018-05-25T15:14:07.909Z,99907
2018-05-25T15:16:36.112Z,99904
2018-05-25T15:19:04.259Z,99902
2018-05-25T15:21:32.413Z,99902
2018-05-25T15:24:01.299Z,99896
2018-05-25T15:26:30.199Z,99901
2018-05-25T15:28:59.159Z,99899
2018-05-25T15:31:27.309Z,99889
2018-05-25T15:33:55.437Z,99887
2018-05-25T15:36:23.663Z,99891
2018-05-25T15:38:51.787Z,99889
2018-05-25T15:41:19.978Z,99888
2018-05-25T15:43:48.095Z,99885
2018-05-25T15:46:16.399Z,99886
2018-05-25T15:48:44.553Z,99887
2018-05-25T15:51:12.666Z,99889
2018-05-25T15:53:41.014Z,99891
2018-05-25T15:56:09.194Z,99900
2018-05-25T15:58:37.359Z,99892
2018-05-25T16:01:05.674Z,99888
2018-05-25T16:03:33.913Z,99894
2018-05-25T16:06:02.825Z,99893
2018-05-25T16:08:30.969Z,99892
2018-05-25T16:10:59.838Z,99890
2018-05-25T16:13:27.938Z,99890
2018-05-25T16:15:56.097Z,99887
2018-05-25T16:18:24.227Z,99890
2018-05-25T16:20:52.373Z,99888
2018-05-25T16:23:20.487Z,99890
2018-05-25T16:25:48.613Z,99894
2018-05-25T16:28:16.722Z,99900
2018-05-25T16:30:45.619Z,99888
2018-05-25T16:33:14.515Z,99886
2018-05-25T16:35:43.395Z,99897
2018-05-25T16:38:12.274Z,99899
2018-05-25T16:40:40.405Z,99899
2018-05-25T16:43:08.531Z,99894
2018-05-25T16:45:36.654Z,99902
2018-05-25T16:48:04.782Z,99899
2018-05-25T16:50:32.895Z,99894
2018-05-25T16:53:01.007Z,99890
2018-05-25T16:55:29.132Z,99901
2018-05-25T16:57:58.063Z,99903
2018-05-25T17:00:26.180Z,99899
2018-05-25T17:02:54.705Z,99903
2018-05-25T17:05:23.584Z,99909
2018-05-25T17:07:52.477Z,99914
2018-05-25T17:10:21.359Z,99915
2018-05-25T17:12:49.531Z,99907
2018-05-25T17:15:17.600Z,99922
2018-05-25T17:17:45.727Z,99919
2018-05-25T17:20:13.845Z,99931
2018-05-25T17:22:41.982Z,99927
2018-05-25T17:25:10.153Z,99927
2018-05-25T17:27:38.667Z,99924
2018-05-25T17:30:07.549Z,99926
2018-05-25T17:32:35.677Z,99933
2018-05-25T17:35:03.813Z,99927
2018-05-25T17:37:31.932Z,99941
2018-05-25T17:40:00.090Z,99931
2018-05-25T17:42:28.218Z,99937
2018-05-25T17:44:57.088Z,99937
2018-05-25T17:47:25.218Z,99934
2018-05-25T17:49:53.424Z,99943
2018-05-25T17:52:21.588Z,99935
2018-05-25T17:54:49.841Z,99942
2018-05-25T17:57:17.960Z,99935
2018-05-25T17:59:46.125Z,99929
2018-05-25T18:02:14.329Z,99936
2018-05-25T18:04:42.470Z,99947
2018-05-25T18:07:10.585Z,99940
2018-05-25T18:09:38.744Z,99940
2018-05-25T18:12:06.893Z,99943
2018-05-25T18:14:35.000Z,99942
2018-05-25T18:17:03.902Z,99949
2018-05-25T18:19:32.055Z,99946
2018-05-25T18:22:00.205Z,99946
2018-05-25T18:24:28.353Z,99942
2018-05-25T18:26:56.471Z,99951
2018-05-25T18:29:24.611Z,99946
2018-05-25T18:31:52.771Z,99943
2018-05-25T18:34:20.927Z,99946
2018-05-25T18:36:49.848Z,99943
2018-05-25T18:39:17.987Z,99941
2018-05-25T18:41:46.139Z,99947
2018-05-25T18:44:15.060Z,99944
2018-05-25T18:46:43.202Z,99948
2018-05-25T18:49:12.116Z,99945
2018-05-25T18:51:40.234Z,99953
2018-05-25T18:54:26.180Z,99955
2018-05-25T18:56:54.333Z,99958
2018-05-25T18:59:22.454Z,99960
2018-05-25T19:01:50.650Z,99957
2018-05-25T19:04:18.942Z,99967
2018-05-25T19:06:47.878Z,99971
2018-05-25T19:09:16.753Z,99976
2018-05-25T19:11:44.898Z,99977
2018-05-25T19:14:13.050Z,99982
2018-05-25T19:16:41.208Z,99985
2018-05-25T19:19:09.357Z,99986
2018-05-25T19:21:37.524Z,99985
2018-05-25T19:24:05.676Z,99996
2018-05-25T19:26:33.851Z,99990
2018-05-25T19:29:02.010Z,99994
2018-05-25T19:31:30.172Z,99992
2018-05-25T19:33:59.087Z,100001
2018-05-25T19:36:27.230Z,100000
2018-05-25T19:38:55.446Z,100003
2018-05-25T19:41:23.579Z,100008
2018-05-25T19:43:51.753Z,100015
2018-05-25T19:46:19.918Z,100012
2018-05-25T19:48:48.058Z,100022
2018-05-25T19:51:16.213Z,100018
2018-05-25T19:53:45.108Z,100015
2018-05-25T19:56:14.032Z,100022
2018-05-25T19:58:42.199Z,100020
2018-05-25T20:01:10.362Z,100027
2018-05-25T20:03:39.278Z,100030
2018-05-25T20:06:07.405Z,100032
2018-05-25T20:08:35.562Z,100035
2018-05-25T20:11:03.724Z,100031
2018-05-25T20:13:31.881Z,100033
2018-05-25T20:16:00.039Z,100035
2018-05-25T20:18:28.210Z,100039
2018-05-25T20:20:57.155Z,100039
2018-05-25T20:23:25.315Z,100042
2018-05-25T20:25:53.447Z,100043
2018-05-25T20:28:21.602Z,100040
2018-05-25T20:30:49.745Z,100031
2018-05-25T20:33:17.893Z,100029
2018-05-25T20:35:46.050Z,100030
2018-05-25T20:38:14.195Z,100030
2018-05-25T20:40:42.369Z,100029
2018-05-25T20:43:10.517Z,100034
2018-05-25T20:45:39.458Z,100028
2018-05-25T20:48:07.640Z,100033
2018-05-25T20:50:35.799Z,100029
2018-05-25T20:53:03.956Z,100030
2018-05-25T20:55:32.858Z,100028
2018-05-25T20:58:01.022Z,100035
2018-05-25T21:00:29.916Z,100025
2018-05-25T21:02:58.101Z,100026
2018-05-25T21:05:26.999Z,100034
2018-05-25T21:07:55.912Z,100038
2018-05-25T21:10:24.056Z,100035
2018-05-25T21:12:52.290Z,100039
2018-05-25T21:15:20.452Z,100041
2018-05-25T21:17:48.690Z,100047
2018-05-25T21:20:16.813Z,100043
2018-05-25T21:22:44.950Z,100050
2018-05-25T21:25:13.092Z,100043
2018-05-25T21:27:41.206Z,100049
2018-05-25T21:30:10.185Z,100048
2018-05-25T21:32:38.311Z,100051
2018-05-25T21:35:06.455Z,100051
2018-05-25T21:37:35.351Z,100051
2018-05-25T21:40:04.294Z,100055
2018-05-25T21:42:32.463Z,100067
2018-05-25T21:45:00.610Z,100063
2018-05-25T21:47:29.528Z,100063
2018-05-25T21:49:57.674Z,100063
2018-05-25T21:52:25.842Z,100058
2018-05-25T21:54:53.989Z,100077
2018-05-25T21:57:22.147Z,100074
2018-05-25T21:59:50.289Z,100081
2018-05-25T22:02:18.416Z,100075
2018-05-25T22:04:46.562Z,100081
2018-05-25T22:07:15.459Z,100081
2018-05-25T22:09:44.378Z,100079
2018-05-25T22:12:13.281Z,100079
2018-05-25T22:14:41.422Z,100069
2018-05-25T22:17:10.313Z,100087
2018-05-25T22:19:39.231Z,100097
2018-05-25T22:22:07.369Z,100099
2018-05-25T22:24:35.524Z,100095
2018-05-25T22:27:03.657Z,100092
2018-05-25T22:29:31.810Z,100098
2018-05-25T22:31:59.987Z,100092
2018-05-25T22:34:28.141Z,100082
2018-05-25T22:36:56.282Z,100083
2018-05-25T22:39:24.435Z,100087
2018-05-25T22:41:55.856Z,100082
2018-05-25T22:44:41.881Z,100080
2018-05-25T22:47:28.665Z,100087
2018-05-25T22:50:14.868Z,100092
2018-05-25T22:52:48.578Z,100098
2018-05-25T22:55:17.485Z,100097
2018-05-25T22:57:45.627Z,100100
2018-05-25T23:00:13.804Z,100099
2018-05-25T23:02:41.928Z,100098
2018-05-25T23:05:10.085Z,100096
2018-05-25T23:07:39.002Z,100090
2018-05-25T23:10:07.153Z,100080
2018-05-25T23:12:36.042Z,100087
2018-05-25T23:15:04.989Z,100081
2018-05-25T23:17:33.136Z,100093
2018-05-25T23:20:01.282Z,100078
2018-05-25T23:22:29.434Z,100070
2018-05-25T23:24:57.594Z,100068
2018-05-25T23:27:25.733Z,100063
2018-05-25T23:29:54.620Z,100069
2018-05-25T23:32:23.893Z,100080
2018-05-25T23:34:52.027Z,100083
2018-05-25T23:37:20.169Z,100083
2018-05-25T23:39:49.101Z,100076
2018-05-25T23:42:17.243Z,100083
2018-05-25T23:44:46.154Z,100082
2018-05-25T23:47:15.030Z,100087
2018-05-25T23:49:43.945Z,100096
2018-05-25T23:52:12.851Z,100090
2018-05-25T23:54:41.010Z,100096
2018-05-25T23:57:09.906Z,100084
2018-05-25T23:59:38.827Z,100091
